Address 0xd33ec599f3cdf3f8b66bfca854fe716f261130eb

Txn Hash Method
Block
From
To
Value [Txn Fee]
0x1aa6c8b70b370e396785b5555fd9410714cd0871deef6fa550e3d0543c8afb800xdc8bc043203977932022-09-28 20:25:021 day 15 hrs ago0xd33ec599f3cdf3f8b66bfca854fe716f261130ebOUT 0x159cfd38deac6bb7b95abff3aa42063651c3c6f90 AVAX0.0085051485 26.5
0x15338a69405cbfef5a7158f79304d920e4fbfdd3f1b46b8ebe3139e325c03e43Dispense203812612022-09-28 10:57:282 days 59 mins ago0xd33ec599f3cdf3f8b66bfca854fe716f261130ebOUT 0xb6b5a218440bd9aff5943ff3b23c2faa9f038fe40 AVAX0.00333152994 27.2816825
0xddc3c89867c818172a39debaf7ba9d807376d935c6a3927a533b02a9821400cb0xdc8bc043203552812022-09-27 20:05:372 days 15 hrs ago0xd33ec599f3cdf3f8b66bfca854fe716f261130ebOUT 0x159cfd38deac6bb7b95abff3aa42063651c3c6f90 AVAX0.009087365608 26.8818
0x145c15eae1588fddde073376410379348adbba05b3b1dcedf6f2cc741186ca18Claim Eggs203552312022-09-27 20:03:562 days 15 hrs ago0xd33ec599f3cdf3f8b66bfca854fe716f261130ebOUT Chikn Farm: EGG Token0 AVAX0.0039084055 26.5
0xa38852f1edd9a58a540903e8ebdfb92f3186c69c29fa65f8efb1b6ed874b6bedDispense203388732022-09-27 10:44:183 days 1 hr ago0xd33ec599f3cdf3f8b66bfca854fe716f261130ebOUT 0xb6b5a218440bd9aff5943ff3b23c2faa9f038fe40 AVAX0.004136968 26.5
0xb1bf778bfb324ded2c77ace1df218a14dec56f72e263aa975dd84ebc0db191a1Swap Exact Token...203135712022-09-26 20:17:253 days 15 hrs ago0xd33ec599f3cdf3f8b66bfca854fe716f261130ebOUT Trader Joe: Router0 AVAX0.004338686 26.5
0x5c2d3cb419469a20967e65d3077a82c179597cfab723428990a5d98b05b4a118Swap Exact Token...203135562022-09-26 20:16:553 days 15 hrs ago0xd33ec599f3cdf3f8b66bfca854fe716f261130ebOUT Trader Joe: Router0 AVAX0.0046307661 27.425
0x57d9e649c65b29e1f0a9673f16121904d1363cb62e9241841cd9fea863e2e4880xdc8bc043203132062022-09-26 20:04:453 days 15 hrs ago0xd33ec599f3cdf3f8b66bfca854fe716f261130ebOUT 0x159cfd38deac6bb7b95abff3aa42063651c3c6f90 AVAX0.0085051485 26.5
0x5a6882740265bcfba15bb9497463e1d88bc857bbf9760bd350371943a853eacaClaim Eggs203131782022-09-26 20:03:463 days 15 hrs ago0xd33ec599f3cdf3f8b66bfca854fe716f261130ebOUT Chikn Farm: EGG Token0 AVAX0.0034552555 26.5
0x7e367538f766f7ea4cb9d44d675db572d40de213f762abee6af83aeab350fc060xdc8bc043202716032022-09-25 20:03:444 days 15 hrs ago0xd33ec599f3cdf3f8b66bfca854fe716f261130ebOUT 0x159cfd38deac6bb7b95abff3aa42063651c3c6f90 AVAX0.0085197235 26.5
0xee36a182f8cdfb5ca1ba5278f0eed3d5c85e2b40fed519d8ad3dc1a04b2206f2Claim Eggs202715762022-09-25 20:02:504 days 15 hrs ago0xd33ec599f3cdf3f8b66bfca854fe716f261130ebOUT Chikn Farm: EGG Token0 AVAX0.003483396305 26.71582524
0xe2cffd0f766ade0b26ac294e56bee780342f8d91c533717c8e6cf96574967781Set Price For Sa...202557082022-09-25 10:54:575 days 1 hr ago0xd33ec599f3cdf3f8b66bfca854fe716f261130ebOUT 0xcf91b99548b1c17dd1095c0680e20de380635e200 AVAX0.0013592645 26.5
0x58cbaefb61cd17b5ce77070b8b599da3e7c6552020d2f8f43c1839b65eefb8c60x501a3ada202556272022-09-25 10:52:085 days 1 hr ago0xd33ec599f3cdf3f8b66bfca854fe716f261130ebOUT 0xb160cf7902e21d7459d755c37cd6f332cdbd82f30 AVAX0.0037706585 26.5
0x2c1d9a5b84c7f390d233d3b0c7bbe821b210b5586359c09784c7296e20ee5238Swap AVAX For Ex...202555012022-09-25 10:47:375 days 1 hr ago0xd33ec599f3cdf3f8b66bfca854fe716f261130ebOUT Trader Joe: Router0.259782794968547 AVAX0.0035425995 26.5
0xe6059d0141271e157e3786b1daa04ac892470580164269230609441ad156cb31Transfer202554612022-09-25 10:46:105 days 1 hr ago0x4c75884244fb8bfd680ec906d846f96d3045c073 IN 0xd33ec599f3cdf3f8b66bfca854fe716f261130eb0.4 AVAX0.0005565 26.5
0x7fa89c9dec26427fecca18723d4303711669f4f5984ee167f3bb244233e9551bClaim Eggs202552642022-09-25 10:39:035 days 1 hr ago0xd33ec599f3cdf3f8b66bfca854fe716f261130ebOUT Chikn Farm: EGG Token0 AVAX0.0034552555 26.5
0x89d0033c332e767ce79d7eba9f464e7bf15291ccd1f94d3f11d3dab6920458feClaim Eggs202552532022-09-25 10:38:375 days 1 hr ago0xd33ec599f3cdf3f8b66bfca854fe716f261130ebOUT Chikn Farm: EGG Token0 AVAX0.0034552555 26.5
0x58f62ae63616ffb508bf1da7dbfcee9692c77559f1abfc3d3be843a537a3e8a7Transfer202552482022-09-25 10:38:275 days 1 hr ago0xd33ec599f3cdf3f8b66bfca854fe716f261130ebSELF0xd33ec599f3cdf3f8b66bfca854fe716f261130eb0 AVAX0.000569814 27.134
0xab1cccec76a8cc69ec168b012a7a0040ec8a9881b2190dd98b75f51cea7b5185Set Price For Sa...202512632022-09-25 8:19:315 days 3 hrs ago0xd33ec599f3cdf3f8b66bfca854fe716f261130ebOUT 0xcf91b99548b1c17dd1095c0680e20de380635e200 AVAX0.0018866145 26.5
0x18ed91091e1b0c44291001d65806bd5e4ef23a7bfa86b1cb0aa6a80c5f5bcca00x501a3ada202501942022-09-25 7:42:145 days 4 hrs ago0xd33ec599f3cdf3f8b66bfca854fe716f261130ebOUT 0xb160cf7902e21d7459d755c37cd6f332cdbd82f30 AVAX0.003874192625 27.425
0xb212444dd85c90d82b24207befcc5af8c7f2f0f93798f47fb391b899913bc2ec0x501a3ada202500562022-09-25 7:37:315 days 4 hrs ago0xd33ec599f3cdf3f8b66bfca854fe716f261130ebOUT 0xb160cf7902e21d7459d755c37cd6f332cdbd82f30 AVAX0.0036889325 26.5
0x2440e160bc064e806ac12667678034a9d4df98cab43bafdabf75ce9b9bf0b005Swap AVAX For Ex...202500272022-09-25 7:36:335 days 4 hrs ago0xd33ec599f3cdf3f8b66bfca854fe716f261130ebOUT Trader Joe: Router0.683323687899664 AVAX0.003567325892 26.682567726
0x93a9d77919e738f0da56467e1eef2f36cfe0d47bffa78d5855a4b31c441377d30xe3f87834202498652022-09-25 7:30:545 days 4 hrs ago0xd33ec599f3cdf3f8b66bfca854fe716f261130ebOUT 0x159cfd38deac6bb7b95abff3aa42063651c3c6f90 AVAX0.003074053 26.5
0xb60a013e5768a7bd93118c197ca5012d8bae87414ebff9352c5e2edb071cd7af0xe3f87834202498592022-09-25 7:30:425 days 4 hrs ago0xd33ec599f3cdf3f8b66bfca854fe716f261130ebOUT 0x159cfd38deac6bb7b95abff3aa42063651c3c6f90 AVAX0.003074371 26.5
0xb17991ba2b12728aff7872eddf4800544e1e608489daef467266aaefcc6f90e00xe27bf0ea202498272022-09-25 7:29:325 days 4 hrs ago0xd33ec599f3cdf3f8b66bfca854fe716f261130ebOUT 0x159cfd38deac6bb7b95abff3aa42063651c3c6f90 AVAX0.002837355 26.5
[ Download CSV Export 
Latest 3 internal transactions
Parent Txn Hash Block From To Value
0x2c1d9a5b84c7f390d233d3b0c7bbe821b210b5586359c09784c7296e20ee5238202555012022-09-25 10:47:375 days 1 hr ago Trader Joe: Router0xd33ec599f3cdf3f8b66bfca854fe716f261130eb0.001292451716261431 AVAX
0x2440e160bc064e806ac12667678034a9d4df98cab43bafdabf75ce9b9bf0b005202500272022-09-25 7:36:335 days 4 hrs ago Trader Joe: Router0xd33ec599f3cdf3f8b66bfca854fe716f261130eb0.003399620337809274 AVAX
0x1857e8c294cc1047ca30172db901875d38924c3e8b48a3cd9f2b687c12c0f662202491772022-09-25 7:06:245 days 4 hrs ago Trader Joe: Router0xd33ec599f3cdf3f8b66bfca854fe716f261130eb35.191499679999183152 AVAX
[ Download CSV Export 
Loading

Contract Name:
0

Compiler Version
0

Optimization Enabled:
0

Other Settings:
-NA-
Block Transaction Gas Used Reward
Age Block Fee Address BC Fee Address Voting Power Jailed Incoming
Block Uncle Number Difficulty Gas Used Reward
Loading
Make sure to use the "Vote Down" button for any spammy posts, and the "Vote Up" for interesting conversations.